sensor_id;sensor_type;location;lat;lon;timestamp;pressure;altitude;pressure_sealevel;temperature;humidity
54850;BME280;47660;51.334;12.396;2023-04-25T00:00:02;99365.00;;;18.44;45.23
54850;BME280;47660;51.334;12.396;2023-04-25T00:02:32;99364.13;;;16.86;48.23
54850;BME280;47660;51.334;12.396;2023-04-25T00:05:02;99361.94;;;17.49;47.51
54850;BME280;47660;51.334;12.396;2023-04-25T00:07:30;99358.22;;;17.92;46.22
54850;BME280;47660;51.334;12.396;2023-04-25T00:09:58;99353.78;;;18.32;45.61
54850;BME280;47660;51.334;12.396;2023-04-25T00:12:24;99345.81;;;16.39;49.49
54850;BME280;47660;51.334;12.396;2023-04-25T00:14:49;99352.88;;;16.83;49.28
54850;BME280;47660;51.334;12.396;2023-04-25T00:17:15;99354.66;;;16.74;49.17
54850;BME280;47660;51.334;12.396;2023-04-25T00:19:42;99360.59;;;16.43;50.43
54850;BME280;47660;51.334;12.396;2023-04-25T00:22:10;99352.63;;;16.59;49.55
54850;BME280;47660;51.334;12.396;2023-04-25T00:24:38;99350.09;;;17.01;49.05
54850;BME280;47660;51.334;12.396;2023-04-25T00:27:03;99355.63;;;16.64;49.96
54850;BME280;47660;51.334;12.396;2023-04-25T00:29:31;99359.34;;;17.06;49.65
54850;BME280;47660;51.334;12.396;2023-04-25T00:31:57;99357.34;;;16.74;49.70
54850;BME280;47660;51.334;12.396;2023-04-25T00:34:24;99359.38;;;16.80;49.71
54850;BME280;47660;51.334;12.396;2023-04-25T00:36:52;99363.38;;;17.11;50.14
54850;BME280;47660;51.334;12.396;2023-04-25T00:39:22;99369.84;;;16.22;51.59
54850;BME280;47660;51.334;12.396;2023-04-25T00:41:47;99367.47;;;16.45;50.58
54850;BME280;47660;51.334;12.396;2023-04-25T00:44:15;99365.38;;;17.08;49.45
54850;BME280;47660;51.334;12.396;2023-04-25T00:46:43;99367.63;;;16.78;50.13
54850;BME280;47660;51.334;12.396;2023-04-25T00:49:08;99372.94;;;17.21;48.18
54850;BME280;47660;51.334;12.396;2023-04-25T00:51:39;99357.56;;;17.48;47.10
54850;BME280;47660;51.334;12.396;2023-04-25T00:54:04;99361.88;;;17.08;48.13
54850;BME280;47660;51.334;12.396;2023-04-25T00:56:30;99367.59;;;17.21;47.51
54850;BME280;47660;51.334;12.396;2023-04-25T00:58:56;99356.81;;;17.13;48.38
54850;BME280;47660;51.334;12.396;2023-04-25T01:01:26;99360.25;;;17.48;47.30
54850;BME280;47660;51.334;12.396;2023-04-25T01:03:53;99362.88;;;17.15;48.74
54850;BME280;47660;51.334;12.396;2023-04-25T01:06:19;99364.09;;;17.29;47.63
54850;BME280;47660;51.334;12.396;2023-04-25T01:08:50;99351.94;;;16.66;48.01
54850;BME280;47660;51.334;12.396;2023-04-25T01:11:16;99357.19;;;17.60;46.46
54850;BME280;47660;51.334;12.396;2023-04-25T01:13:42;99362.06;;;17.23;47.08
54850;BME280;47660;51.334;12.396;2023-04-25T01:16:07;99359.84;;;16.32;48.60
54850;BME280;47660;51.334;12.396;2023-04-25T01:18:35;99357.22;;;16.75;48.27
54850;BME280;47660;51.334;12.396;2023-04-25T01:21:13;99355.97;;;16.61;49.26
54850;BME280;47660;51.334;12.396;2023-04-25T01:23:42;99352.94;;;16.56;48.80
54850;BME280;47660;51.334;12.396;2023-04-25T01:26:11;99355.03;;;16.36;49.95
54850;BME280;47660;51.334;12.396;2023-04-25T01:28:38;99359.63;;;15.55;50.36
54850;BME280;47660;51.334;12.396;2023-04-25T01:31:06;99364.78;;;16.11;49.72
54850;BME280;47660;51.334;12.396;2023-04-25T01:33:32;99352.88;;;15.87;50.09
54850;BME280;47660;51.334;12.396;2023-04-25T01:35:59;99360.09;;;15.86;49.26
54850;BME280;47660;51.334;12.396;2023-04-25T01:38:25;99362.38;;;15.63;49.88
54850;BME280;47660;51.334;12.396;2023-04-25T01:40:53;99359.81;;;16.59;48.54
54850;BME280;47660;51.334;12.396;2023-04-25T01:43:20;99366.03;;;16.59;47.32
54850;BME280;47660;51.334;12.396;2023-04-25T01:45:49;99366.75;;;17.21;47.30
54850;BME280;47660;51.334;12.396;2023-04-25T01:48:14;99364.91;;;16.36;47.82
54850;BME280;47660;51.334;12.396;2023-04-25T01:50:40;99360.91;;;15.87;49.32
54850;BME280;47660;51.334;12.396;2023-04-25T01:53:09;99364.09;;;16.43;48.09
54850;BME280;47660;51.334;12.396;2023-04-25T01:55:36;99365.81;;;16.53;47.71
54850;BME280;47660;51.334;12.396;2023-04-25T01:58:02;99362.97;;;16.19;48.81
54850;BME280;47660;51.334;12.396;2023-04-25T02:00:28;99364.47;;;16.22;48.12
54850;BME280;47660;51.334;12.396;2023-04-25T02:02:58;99361.94;;;16.90;47.82
54850;BME280;47660;51.334;12.396;2023-04-25T02:05:23;99355.91;;;16.45;46.81
54850;BME280;47660;51.334;12.396;2023-04-25T02:07:49;99346.63;;;16.04;47.91
54850;BME280;47660;51.334;12.396;2023-04-25T02:10:14;99347.72;;;15.94;47.86
54850;BME280;47660;51.334;12.396;2023-04-25T02:12:40;99350.78;;;15.81;48.67
54850;BME280;47660;51.334;12.396;2023-04-25T02:15:06;99350.72;;;16.52;47.13
54850;BME280;47660;51.334;12.396;2023-04-25T02:17:31;99354.38;;;16.08;47.81
54850;BME280;47660;51.334;12.396;2023-04-25T02:19:59;99349.75;;;16.61;47.08
54850;BME280;47660;51.334;12.396;2023-04-25T02:22:25;99347.84;;;15.66;48.56
54850;BME280;47660;51.334;12.396;2023-04-25T02:24:54;99354.84;;;16.38;48.20
54850;BME280;47660;51.334;12.396;2023-04-25T02:27:20;99358.84;;;16.33;47.40
54850;BME280;47660;51.334;12.396;2023-04-25T02:29:45;99359.34;;;16.02;47.92
54850;BME280;47660;51.334;12.396;2023-04-25T02:32:11;99346.78;;;16.72;46.15
54850;BME280;47660;51.334;12.396;2023-04-25T02:34:36;99340.72;;;16.62;46.42
54850;BME280;47660;51.334;12.396;2023-04-25T02:37:02;99343.91;;;16.66;46.56
54850;BME280;47660;51.334;12.396;2023-04-25T02:39:32;99340.72;;;17.05;46.11
54850;BME280;47660;51.334;12.396;2023-04-25T02:41:58;99354.34;;;16.34;46.99
54850;BME280;47660;51.334;12.396;2023-04-25T02:44:23;99343.50;;;16.44;46.63
54850;BME280;47660;51.334;12.396;2023-04-25T02:46:48;99342.50;;;16.45;46.49
54850;BME280;47660;51.334;12.396;2023-04-25T02:49:14;99347.84;;;16.80;45.78
54850;BME280;47660;51.334;12.396;2023-04-25T02:51:40;99345.41;;;16.60;45.99
54850;BME280;47660;51.334;12.396;2023-04-25T02:54:05;99347.00;;;16.10;47.13
54850;BME280;47660;51.334;12.396;2023-04-25T02:56:31;99345.34;;;15.72;47.89
54850;BME280;47660;51.334;12.396;2023-04-25T02:58:57;99350.06;;;15.16;49.11
54850;BME280;47660;51.334;12.396;2023-04-25T03:01:23;99347.00;;;16.36;47.09
54850;BME280;47660;51.334;12.396;2023-04-25T03:03:48;99347.69;;;15.49;49.02
54850;BME280;47660;51.334;12.396;2023-04-25T03:06:16;99337.88;;;16.72;47.80
54850;BME280;47660;51.334;12.396;2023-04-25T03:08:41;99341.53;;;16.54;46.79
54850;BME280;47660;51.334;12.396;2023-04-25T03:11:07;99343.16;;;16.12;47.58
54850;BME280;47660;51.334;12.396;2023-04-25T03:13:33;99346.47;;;15.62;48.93
54850;BME280;47660;51.334;12.396;2023-04-25T03:16:01;99342.16;;;15.87;47.79
54850;BME280;47660;51.334;12.396;2023-04-25T03:18:26;99343.38;;;15.74;47.46
54850;BME280;47660;51.334;12.396;2023-04-25T03:20:55;99343.72;;;15.53;48.38
54850;BME280;47660;51.334;12.396;2023-04-25T03:23:20;99351.66;;;15.27;48.95
54850;BME280;47660;51.334;12.396;2023-04-25T03:25:46;99344.78;;;15.42;48.43
54850;BME280;47660;51.334;12.396;2023-04-25T03:28:11;99347.66;;;15.67;47.82
54850;BME280;47660;51.334;12.396;2023-04-25T03:30:39;99338.28;;;16.08;48.29
54850;BME280;47660;51.334;12.396;2023-04-25T03:33:04;99347.88;;;15.29;48.97
54850;BME280;47660;51.334;12.396;2023-04-25T03:35:32;99336.88;;;15.77;48.02
54850;BME280;47660;51.334;12.396;2023-04-25T03:37:57;99341.34;;;15.86;47.74
54850;BME280;47660;51.334;12.396;2023-04-25T03:40:25;99343.72;;;15.35;48.23
54850;BME280;47660;51.334;12.396;2023-04-25T03:42:50;99340.91;;;15.99;47.64
54850;BME280;47660;51.334;12.396;2023-04-25T03:45:18;99341.06;;;15.80;47.43
54850;BME280;47660;51.334;12.396;2023-04-25T03:47:44;99341.66;;;15.92;47.54
54850;BME280;47660;51.334;12.396;2023-04-25T03:50:09;99349.91;;;15.72;47.70
54850;BME280;47660;51.334;12.396;2023-04-25T03:52:35;99341.72;;;15.37;48.16
54850;BME280;47660;51.334;12.396;2023-04-25T03:55:00;99342.66;;;15.91;46.96
54850;BME280;47660;51.334;12.396;2023-04-25T03:57:26;99337.75;;;15.41;48.14
54850;BME280;47660;51.334;12.396;2023-04-25T03:59:51;99344.50;;;15.09;48.15
54850;BME280;47660;51.334;12.396;2023-04-25T04:02:19;99339.69;;;15.94;47.83
54850;BME280;47660;51.334;12.396;2023-04-25T04:04:47;99342.34;;;16.12;47.74
54850;BME280;47660;51.334;12.396;2023-04-25T04:07:12;99355.91;;;14.55;49.50
54850;BME280;47660;51.334;12.396;2023-04-25T04:09:38;99344.50;;;15.45;47.30
54850;BME280;47660;51.334;12.396;2023-04-25T04:12:03;99346.47;;;15.43;47.87
54850;BME280;47660;51.334;12.396;2023-04-25T04:14:29;99351.16;;;15.23;47.70
54850;BME280;47660;51.334;12.396;2023-04-25T04:16:54;99356.81;;;15.83;47.26
54850;BME280;47660;51.334;12.396;2023-04-25T04:19:27;99351.50;;;16.36;46.48
54850;BME280;47660;51.334;12.396;2023-04-25T04:22:00;99353.44;;;15.36;47.29
54850;BME280;47660;51.334;12.396;2023-04-25T04:24:27;99350.31;;;15.59;48.14
54850;BME280;47660;51.334;12.396;2023-04-25T04:26:53;99358.34;;;16.03;46.53
54850;BME280;47660;51.334;12.396;2023-04-25T04:29:21;99358.69;;;15.82;46.72
54850;BME280;47660;51.334;12.396;2023-04-25T04:31:48;99363.41;;;15.70;47.53
54850;BME280;47660;51.334;12.396;2023-04-25T04:34:14;99367.38;;;15.58;47.33
54850;BME280;47660;51.334;12.396;2023-04-25T04:36:41;99370.09;;;15.66;47.02
54850;BME280;47660;51.334;12.396;2023-04-25T04:39:09;99371.53;;;15.79;47.55
54850;BME280;47660;51.334;12.396;2023-04-25T04:41:34;99372.56;;;15.59;47.24
54850;BME280;47660;51.334;12.396;2023-04-25T04:44:03;99376.63;;;16.34;46.53
54850;BME280;47660;51.334;12.396;2023-04-25T04:46:30;99374.94;;;16.33;46.45
54850;BME280;47660;51.334;12.396;2023-04-25T04:48:56;99376.22;;;15.04;47.81
54850;BME280;47660;51.334;12.396;2023-04-25T04:51:22;99374.38;;;15.23;47.65
54850;BME280;47660;51.334;12.396;2023-04-25T04:53:50;99372.16;;;15.18;48.06
54850;BME280;47660;51.334;12.396;2023-04-25T04:56:18;99374.75;;;15.82;46.44
54850;BME280;47660;51.334;12.396;2023-04-25T04:58:45;99373.00;;;15.91;46.13
54850;BME280;47660;51.334;12.396;2023-04-25T05:01:14;99378.22;;;14.64;49.01
54850;BME280;47660;51.334;12.396;2023-04-25T05:03:41;99372.13;;;16.43;45.74
54850;BME280;47660;51.334;12.396;2023-04-25T05:06:06;99372.72;;;16.98;44.31
54850;BME280;47660;51.334;12.396;2023-04-25T05:08:31;99370.78;;;16.74;44.17
54850;BME280;47660;51.334;12.396;2023-04-25T05:11:01;99379.78;;;16.30;45.03
54850;BME280;47660;51.334;12.396;2023-04-25T05:13:27;99377.22;;;16.89;44.15
54850;BME280;47660;51.334;12.396;2023-04-25T05:15:55;99375.88;;;16.93;44.62
54850;BME280;47660;51.334;12.396;2023-04-25T05:18:20;99381.31;;;16.32;45.82
54850;BME280;47660;51.334;12.396;2023-04-25T05:20:46;99392.16;;;16.23;45.53
54850;BME280;47660;51.334;12.396;2023-04-25T05:23:11;99374.25;;;16.05;46.12
54850;BME280;47660;51.334;12.396;2023-04-25T05:25:36;99381.41;;;15.06;47.46
54850;BME280;47660;51.334;12.396;2023-04-25T05:28:04;99380.06;;;15.56;47.13
54850;BME280;47660;51.334;12.396;2023-04-25T05:30:30;99378.00;;;15.50;47.26
54850;BME280;47660;51.334;12.396;2023-04-25T05:32:56;99381.03;;;15.91;46.85
54850;BME280;47660;51.334;12.396;2023-04-25T05:35:21;99382.28;;;15.42;47.65
54850;BME280;47660;51.334;12.396;2023-04-25T05:37:47;99383.66;;;15.47;47.35
54850;BME280;47660;51.334;12.396;2023-04-25T05:40:12;99379.84;;;16.12;46.62
54850;BME280;47660;51.334;12.396;2023-04-25T05:42:38;99389.91;;;16.10;46.26
54850;BME280;47660;51.334;12.396;2023-04-25T05:45:03;99389.44;;;15.24;48.24
54850;BME280;47660;51.334;12.396;2023-04-25T05:47:29;99382.19;;;16.15;46.10
54850;BME280;47660;51.334;12.396;2023-04-25T05:49:57;99386.56;;;16.16;46.00
54850;BME280;47660;51.334;12.396;2023-04-25T05:52:22;99381.31;;;16.06;46.27
54850;BME280;47660;51.334;12.396;2023-04-25T05:54:48;99385.69;;;16.07;46.60
54850;BME280;47660;51.334;12.396;2023-04-25T05:57:25;99386.59;;;15.80;47.35
54850;BME280;47660;51.334;12.396;2023-04-25T05:59:51;99402.94;;;16.04;46.37
54850;BME280;47660;51.334;12.396;2023-04-25T06:02:18;99407.44;;;15.86;46.60
54850;BME280;47660;51.334;12.396;2023-04-25T06:04:43;99418.56;;;14.43;49.56
54850;BME280;47660;51.334;12.396;2023-04-25T06:07:09;99412.69;;;15.05;48.56
54850;BME280;47660;51.334;12.396;2023-04-25T06:09:38;99421.63;;;14.48;50.50
54850;BME280;47660;51.334;12.396;2023-04-25T06:12:05;99430.44;;;14.68;49.68
54850;BME280;47660;51.334;12.396;2023-04-25T06:14:30;99423.34;;;15.33;48.55
54850;BME280;47660;51.334;12.396;2023-04-25T06:16:56;99416.88;;;15.90;46.88
54850;BME280;47660;51.334;12.396;2023-04-25T06:19:21;99416.09;;;16.24;46.59
54850;BME280;47660;51.334;12.396;2023-04-25T06:21:47;99430.00;;;15.29;47.18
54850;BME280;47660;51.334;12.396;2023-04-25T06:24:12;99437.59;;;14.78;48.73
54850;BME280;47660;51.334;12.396;2023-04-25T06:26:38;99430.59;;;15.87;47.47
54850;BME280;47660;51.334;12.396;2023-04-25T06:29:03;99430.03;;;15.83;47.20
54850;BME280;47660;51.334;12.396;2023-04-25T06:31:28;99426.91;;;15.52;47.83
54850;BME280;47660;51.334;12.396;2023-04-25T06:33:57;99429.47;;;16.42;46.17
54850;BME280;47660;51.334;12.396;2023-04-25T06:36:23;99419.31;;;16.01;46.77
54850;BME280;47660;51.334;12.396;2023-04-25T06:38:53;99419.25;;;17.15;45.51
54850;BME280;47660;51.334;12.396;2023-04-25T06:41:20;99429.41;;;16.08;46.49
54850;BME280;47660;51.334;12.396;2023-04-25T06:43:45;99435.13;;;16.39;46.43
54850;BME280;47660;51.334;12.396;2023-04-25T06:46:12;99437.41;;;16.26;46.51
54850;BME280;47660;51.334;12.396;2023-04-25T06:48:37;99436.81;;;16.14;47.02
54850;BME280;47660;51.334;12.396;2023-04-25T06:51:03;99434.00;;;16.42;46.11
54850;BME280;47660;51.334;12.396;2023-04-25T06:53:29;99432.31;;;17.02;45.43
54850;BME280;47660;51.334;12.396;2023-04-25T06:55:55;99435.78;;;16.59;46.28
54850;BME280;47660;51.334;12.396;2023-04-25T06:58:23;99426.09;;;16.40;46.50
54850;BME280;47660;51.334;12.396;2023-04-25T07:00:48;99436.31;;;15.92;47.23
54850;BME280;47660;51.334;12.396;2023-04-25T07:03:14;99432.13;;;16.34;46.89
54850;BME280;47660;51.334;12.396;2023-04-25T07:05:40;99431.63;;;17.92;44.17
54850;BME280;47660;51.334;12.396;2023-04-25T07:08:05;99433.72;;;17.22;44.84
54850;BME280;47660;51.334;12.396;2023-04-25T07:10:31;99436.53;;;16.78;45.71
54850;BME280;47660;51.334;12.396;2023-04-25T07:12:56;99441.66;;;17.49;44.67
54850;BME280;47660;51.334;12.396;2023-04-25T07:15:22;99447.44;;;17.11;45.25
54850;BME280;47660;51.334;12.396;2023-04-25T07:17:47;99456.63;;;15.03;49.64
54850;BME280;47660;51.334;12.396;2023-04-25T07:20:14;99447.53;;;16.32;47.56
54850;BME280;47660;51.334;12.396;2023-04-25T07:22:41;99455.00;;;16.28;47.87
54850;BME280;47660;51.334;12.396;2023-04-25T07:25:07;99448.53;;;16.66;46.57
54850;BME280;47660;51.334;12.396;2023-04-25T07:27:33;99468.22;;;16.22;48.15
54850;BME280;47660;51.334;12.396;2023-04-25T07:29:59;99462.91;;;15.39;49.91
54850;BME280;47660;51.334;12.396;2023-04-25T07:32:28;99452.25;;;16.73;46.56
54850;BME280;47660;51.334;12.396;2023-04-25T07:34:53;99458.50;;;16.47;47.12
54850;BME280;47660;51.334;12.396;2023-04-25T07:37:19;99464.31;;;15.98;47.60
54850;BME280;47660;51.334;12.396;2023-04-25T07:39:44;99476.69;;;15.44;49.29
54850;BME280;47660;51.334;12.396;2023-04-25T07:42:14;99457.22;;;17.29;46.29
54850;BME280;47660;51.334;12.396;2023-04-25T07:44:40;99472.75;;;16.03;47.57
54850;BME280;47660;51.334;12.396;2023-04-25T07:47:08;99473.03;;;15.45;49.11
54850;BME280;47660;51.334;12.396;2023-04-25T07:49:34;99470.31;;;16.10;48.83
54850;BME280;47660;51.334;12.396;2023-04-25T07:52:00;99471.22;;;16.45;47.36
54850;BME280;47660;51.334;12.396;2023-04-25T07:54:26;99476.94;;;16.24;47.47
54850;BME280;47660;51.334;12.396;2023-04-25T07:56:54;99474.66;;;17.25;45.71
54850;BME280;47660;51.334;12.396;2023-04-25T07:59:19;99484.91;;;16.15;48.25
54850;BME280;47660;51.334;12.396;2023-04-25T08:01:45;99487.97;;;16.21;47.89
54850;BME280;47660;51.334;12.396;2023-04-25T08:04:11;99486.81;;;17.37;45.78
54850;BME280;47660;51.334;12.396;2023-04-25T08:06:36;99493.31;;;17.34;46.17
54850;BME280;47660;51.334;12.396;2023-04-25T08:09:02;99500.56;;;17.34;46.38
54850;BME280;47660;51.334;12.396;2023-04-25T08:11:28;99501.69;;;16.62;45.93
54850;BME280;47660;51.334;12.396;2023-04-25T08:13:54;99505.72;;;16.66;45.27
54850;BME280;47660;51.334;12.396;2023-04-25T08:16:19;99505.13;;;16.99;44.29
54850;BME280;47660;51.334;12.396;2023-04-25T08:18:45;99496.75;;;16.75;44.47
54850;BME280;47660;51.334;12.396;2023-04-25T08:21:10;99511.59;;;17.74;43.24
54850;BME280;47660;51.334;12.396;2023-04-25T08:23:37;99505.22;;;17.23;42.91
54850;BME280;47660;51.334;12.396;2023-04-25T08:26:02;99510.63;;;16.71;43.62
54850;BME280;47660;51.334;12.396;2023-04-25T08:28:28;99510.41;;;17.17;41.77
54850;BME280;47660;51.334;12.396;2023-04-25T08:30:54;99513.34;;;18.16;39.87
54850;BME280;47660;51.334;12.396;2023-04-25T08:33:19;99520.84;;;17.36;41.24
54850;BME280;47660;51.334;12.396;2023-04-25T08:35:45;99516.81;;;18.75;38.68
54850;BME280;47660;51.334;12.396;2023-04-25T08:38:13;99523.34;;;19.45;38.68
54850;BME280;47660;51.334;12.396;2023-04-25T08:40:39;99521.72;;;18.05;39.68
54850;BME280;47660;51.334;12.396;2023-04-25T08:43:06;99519.72;;;18.32;40.04
54850;BME280;47660;51.334;12.396;2023-04-25T08:45:40;99536.13;;;17.28;41.59
54850;BME280;47660;51.334;12.396;2023-04-25T08:48:10;99530.41;;;17.74;41.26
54850;BME280;47660;51.334;12.396;2023-04-25T08:50:38;99533.16;;;18.65;39.62
54850;BME280;47660;51.334;12.396;2023-04-25T08:53:08;99538.06;;;18.36;39.88
54850;BME280;47660;51.334;12.396;2023-04-25T08:55:37;99530.47;;;18.65;39.77
54850;BME280;47660;51.334;12.396;2023-04-25T08:58:04;99547.78;;;18.04;40.66
54850;BME280;47660;51.334;12.396;2023-04-25T09:00:30;99557.81;;;16.55;41.63
54850;BME280;47660;51.334;12.396;2023-04-25T09:02:57;99546.81;;;18.47;39.12
54850;BME280;47660;51.334;12.396;2023-04-25T09:05:23;99561.25;;;18.04;38.61
54850;BME280;47660;51.334;12.396;2023-04-25T09:07:48;99567.25;;;17.47;39.27
54850;BME280;47660;51.334;12.396;2023-04-25T09:10:18;99567.31;;;18.48;38.67
54850;BME280;47660;51.334;12.396;2023-04-25T09:12:44;99565.41;;;17.47;39.05
54850;BME280;47660;51.334;12.396;2023-04-25T09:15:11;99557.88;;;18.68;38.25
54850;BME280;47660;51.334;12.396;2023-04-25T09:17:41;99564.97;;;19.34;37.77
54850;BME280;47660;51.334;12.396;2023-04-25T09:20:11;99567.97;;;18.75;38.25
54850;BME280;47660;51.334;12.396;2023-04-25T09:22:39;99577.47;;;19.67;37.19
54850;BME280;47660;51.334;12.396;2023-04-25T09:25:11;99579.59;;;19.48;38.19
54850;BME280;47660;51.334;12.396;2023-04-25T09:27:52;99579.41;;;18.85;38.23
54850;BME280;47660;51.334;12.396;2023-04-25T09:30:18;99576.59;;;19.35;38.46
54850;BME280;47660;51.334;12.396;2023-04-25T09:32:45;99589.75;;;17.97;38.48
54850;BME280;47660;51.334;12.396;2023-04-25T09:35:23;99592.03;;;18.76;38.55
54850;BME280;47660;51.334;12.396;2023-04-25T09:37:48;99599.66;;;16.92;40.53
54850;BME280;47660;51.334;12.396;2023-04-25T09:40:14;99600.44;;;17.37;40.06
54850;BME280;47660;51.334;12.396;2023-04-25T09:42:41;99601.41;;;16.57;41.90
54850;BME280;47660;51.334;12.396;2023-04-25T09:45:07;99601.28;;;17.73;41.41
54850;BME280;47660;51.334;12.396;2023-04-25T09:47:37;99604.31;;;18.79;39.14
54850;BME280;47660;51.334;12.396;2023-04-25T09:50:03;99602.47;;;18.71;40.38
54850;BME280;47660;51.334;12.396;2023-04-25T09:52:32;99614.72;;;18.65;40.01
54850;BME280;47660;51.334;12.396;2023-04-25T09:54:57;99618.69;;;16.81;41.63
54850;BME280;47660;51.334;12.396;2023-04-25T09:57:24;99610.69;;;18.61;41.28
54850;BME280;47660;51.334;12.396;2023-04-25T09:59:55;99606.69;;;19.47;39.64
54850;BME280;47660;51.334;12.396;2023-04-25T10:02:25;99608.84;;;19.99;39.10
54850;BME280;47660;51.334;12.396;2023-04-25T10:04:53;99617.41;;;19.71;40.15
54850;BME280;47660;51.334;12.396;2023-04-25T10:07:22;99616.97;;;19.91;38.46
54850;BME280;47660;51.334;12.396;2023-04-25T10:09:58;99609.47;;;19.70;38.33
54850;BME280;47660;51.334;12.396;2023-04-25T10:12:26;99615.34;;;18.09;40.91
54850;BME280;47660;51.334;12.396;2023-04-25T10:14:52;99621.94;;;18.15;41.21
54850;BME280;47660;51.334;12.396;2023-04-25T10:17:22;99621.25;;;16.28;43.32
54850;BME280;47660;51.334;12.396;2023-04-25T10:19:48;99629.28;;;17.27;41.76
54850;BME280;47660;51.334;12.396;2023-04-25T10:22:18;99627.91;;;16.97;42.39
54850;BME280;47660;51.334;12.396;2023-04-25T10:24:48;99623.94;;;16.83;42.00
54850;BME280;47660;51.334;12.396;2023-04-25T10:27:17;99623.28;;;17.33;41.97
54850;BME280;47660;51.334;12.396;2023-04-25T10:29:45;99618.09;;;17.83;40.68
54850;BME280;47660;51.334;12.396;2023-04-25T10:32:25;99612.19;;;18.31;39.89
54850;BME280;47660;51.334;12.396;2023-04-25T10:34:53;99615.25;;;18.69;39.94
54850;BME280;47660;51.334;12.396;2023-04-25T10:37:19;99624.03;;;17.95;40.17
54850;BME280;47660;51.334;12.396;2023-04-25T10:39:45;99615.19;;;17.68;40.62
54850;BME280;47660;51.334;12.396;2023-04-25T10:42:12;99616.41;;;18.75;39.19
54850;BME280;47660;51.334;12.396;2023-04-25T10:44:38;99620.03;;;18.07;40.72
54850;BME280;47660;51.334;12.396;2023-04-25T10:47:07;99624.50;;;18.50;39.92
54850;BME280;47660;51.334;12.396;2023-04-25T10:49:36;99630.00;;;17.37;41.98
54850;BME280;47660;51.334;12.396;2023-04-25T10:54:51;99633.69;;;17.71;40.85
54850;BME280;47660;51.334;12.396;2023-04-25T10:57:30;99633.06;;;17.86;41.38
54850;BME280;47660;51.334;12.396;2023-04-25T11:00:04;99626.66;;;17.78;41.89
54850;BME280;47660;51.334;12.396;2023-04-25T11:02:31;99627.50;;;18.38;40.50
54850;BME280;47660;51.334;12.396;2023-04-25T11:04:56;99633.16;;;17.67;41.05
54850;BME280;47660;51.334;12.396;2023-04-25T11:09:56;99644.91;;;16.87;42.76
54850;BME280;47660;51.334;12.396;2023-04-25T11:12:24;99638.59;;;17.41;42.42
54850;BME280;47660;51.334;12.396;2023-04-25T11:15:00;99639.28;;;18.37;41.24
54850;BME280;47660;51.334;12.396;2023-04-25T11:17:26;99638.31;;;17.95;40.76
54850;BME280;47660;51.334;12.396;2023-04-25T11:19:56;99639.28;;;18.46;40.58
54850;BME280;47660;51.334;12.396;2023-04-25T11:22:26;99643.72;;;17.26;42.46
54850;BME280;47660;51.334;12.396;2023-04-25T11:24:52;99639.41;;;17.42;41.88
54850;BME280;47660;51.334;12.396;2023-04-25T11:27:18;99640.03;;;18.05;40.01
54850;BME280;47660;51.334;12.396;2023-04-25T11:29:44;99656.19;;;17.09;41.85
54850;BME280;47660;51.334;12.396;2023-04-25T11:32:10;99653.31;;;17.63;41.88
54850;BME280;47660;51.334;12.396;2023-04-25T11:34:35;99657.34;;;16.88;42.21
54850;BME280;47660;51.334;12.396;2023-04-25T11:37:05;99656.25;;;17.87;40.90
54850;BME280;47660;51.334;12.396;2023-04-25T11:39:31;99666.13;;;16.54;40.48
54850;BME280;47660;51.334;12.396;2023-04-25T11:41:57;99665.50;;;16.60;39.67
54850;BME280;47660;51.334;12.396;2023-04-25T11:44:23;99653.66;;;17.34;38.80
54850;BME280;47660;51.334;12.396;2023-04-25T11:46:48;99662.97;;;17.48;38.11
54850;BME280;47660;51.334;12.396;2023-04-25T11:49:16;99661.66;;;18.54;36.35
54850;BME280;47660;51.334;12.396;2023-04-25T11:51:46;99656.22;;;19.45;35.85
54850;BME280;47660;51.334;12.396;2023-04-25T11:54:12;99667.19;;;17.24;37.57
54850;BME280;47660;51.334;12.396;2023-04-25T11:56:48;99664.59;;;18.10;36.70
54850;BME280;47660;51.334;12.396;2023-04-25T11:59:14;99667.13;;;17.16;37.78
54850;BME280;47660;51.334;12.396;2023-04-25T12:01:48;99662.50;;;19.38;35.55
54850;BME280;47660;51.334;12.396;2023-04-25T12:04:25;99673.09;;;18.56;35.78
54850;BME280;47660;51.334;12.396;2023-04-25T12:06:53;99676.66;;;17.36;38.00
54850;BME280;47660;51.334;12.396;2023-04-25T12:09:21;99673.25;;;18.63;37.33
54850;BME280;47660;51.334;12.396;2023-04-25T12:11:54;99671.66;;;17.76;37.00
54850;BME280;47660;51.334;12.396;2023-04-25T12:14:34;99672.34;;;18.13;35.63
54850;BME280;47660;51.334;12.396;2023-04-25T12:17:02;99677.75;;;18.21;36.32
54850;BME280;47660;51.334;12.396;2023-04-25T12:19:33;99671.47;;;19.13;34.37
54850;BME280;47660;51.334;12.396;2023-04-25T12:22:02;99672.41;;;18.30;35.74
54850;BME280;47660;51.334;12.396;2023-04-25T12:24:28;99669.22;;;19.50;33.94
54850;BME280;47660;51.334;12.396;2023-04-25T12:27:00;99673.63;;;18.93;34.78
54850;BME280;47660;51.334;12.396;2023-04-25T12:29:28;99672.81;;;19.09;34.34
54850;BME280;47660;51.334;12.396;2023-04-25T12:31:55;99670.56;;;18.63;34.72
54850;BME280;47660;51.334;12.396;2023-04-25T12:34:22;99671.63;;;18.03;35.07
54850;BME280;47660;51.334;12.396;2023-04-25T12:36:49;99672.53;;;18.20;35.19
54850;BME280;47660;51.334;12.396;2023-04-25T12:39:23;99677.81;;;17.07;38.10
54850;BME280;47660;51.334;12.396;2023-04-25T12:41:49;99679.13;;;16.85;37.11
54850;BME280;47660;51.334;12.396;2023-04-25T12:44:17;99679.09;;;18.17;36.34
54850;BME280;47660;51.334;12.396;2023-04-25T12:46:44;99677.78;;;18.38;35.72
54850;BME280;47660;51.334;12.396;2023-04-25T12:49:10;99675.94;;;17.95;37.75
54850;BME280;47660;51.334;12.396;2023-04-25T12:51:36;99679.25;;;18.24;37.85
54850;BME280;47660;51.334;12.396;2023-04-25T12:54:03;99682.88;;;17.63;36.52